sensor_id;sensor_type;location;lat;lon;timestamp;P1;durP1;ratioP1;P2;durP2;ratioP2
69789;SDS011;57064;52.046;4.800;2023-03-31T00:01:35;21.17;;;4.10;;
69789;SDS011;57064;52.046;4.800;2023-03-31T00:04:06;24.58;;;4.13;;
69789;SDS011;57064;52.046;4.800;2023-03-31T00:06:38;19.42;;;4.10;;
69789;SDS011;57064;52.046;4.800;2023-03-31T00:09:10;16.15;;;3.90;;
69789;SDS011;57064;52.046;4.800;2023-03-31T00:11:40;18.90;;;4.00;;
69789;SDS011;57064;52.046;4.800;2023-03-31T00:14:06;14.63;;;3.30;;
69789;SDS011;57064;52.046;4.800;2023-03-31T00:16:33;17.42;;;3.47;;
69789;SDS011;57064;52.046;4.800;2023-03-31T00:19:00;16.55;;;3.30;;
69789;SDS011;57064;52.046;4.800;2023-03-31T00:21:27;15.60;;;3.97;;
69789;SDS011;57064;52.046;4.800;2023-03-31T00:24:04;15.32;;;2.67;;
69789;SDS011;57064;52.046;4.800;2023-03-31T00:26:32;12.50;;;3.38;;
69789;SDS011;57064;52.046;4.800;2023-03-31T00:28:59;20.98;;;3.58;;
69789;SDS011;57064;52.046;4.800;2023-03-31T00:31:26;14.45;;;3.72;;
69789;SDS011;57064;52.046;4.800;2023-03-31T00:33:52;16.08;;;4.25;;
69789;SDS011;57064;52.046;4.800;2023-03-31T00:36:19;12.07;;;3.90;;
69789;SDS011;57064;52.046;4.800;2023-03-31T00:38:51;17.47;;;3.00;;
69789;SDS011;57064;52.046;4.800;2023-03-31T00:41:18;14.68;;;3.58;;
69789;SDS011;57064;52.046;4.800;2023-03-31T00:46:32;19.35;;;4.25;;
69789;SDS011;57064;52.046;4.800;2023-03-31T00:49:30;11.95;;;3.50;;
69789;SDS011;57064;52.046;4.800;2023-03-31T00:52:15;14.98;;;2.88;;
69789;SDS011;57064;52.046;4.800;2023-03-31T00:54:51;10.25;;;3.47;;
69789;SDS011;57064;52.046;4.800;2023-03-31T00:57:22;12.15;;;2.70;;
69789;SDS011;57064;52.046;4.800;2023-03-31T00:59:50;14.90;;;3.97;;
69789;SDS011;57064;52.046;4.800;2023-03-31T01:02:20;14.57;;;3.05;;
69789;SDS011;57064;52.046;4.800;2023-03-31T01:04:51;14.10;;;3.63;;
69789;SDS011;57064;52.046;4.800;2023-03-31T01:07:23;9.82;;;2.78;;
69789;SDS011;57064;52.046;4.800;2023-03-31T01:10:02;12.80;;;2.47;;
69789;SDS011;57064;52.046;4.800;2023-03-31T01:12:29;10.18;;;3.38;;
69789;SDS011;57064;52.046;4.800;2023-03-31T01:14:57;17.77;;;3.10;;
69789;SDS011;57064;52.046;4.800;2023-03-31T01:17:23;14.40;;;2.70;;
69789;SDS011;57064;52.046;4.800;2023-03-31T01:34:35;10.20;;;3.28;;
69789;SDS011;57064;52.046;4.800;2023-03-31T01:43:37;11.25;;;3.58;;
69789;SDS011;57064;52.046;4.800;2023-03-31T01:46:18;10.13;;;3.80;;
69789;SDS011;57064;52.046;4.800;2023-03-31T01:56:54;15.60;;;3.85;;
69789;SDS011;57064;52.046;4.800;2023-03-31T01:59:31;9.70;;;3.30;;
69789;SDS011;57064;52.046;4.800;2023-03-31T02:02:09;10.35;;;3.20;;
69789;SDS011;57064;52.046;4.800;2023-03-31T02:04:47;13.93;;;3.70;;
69789;SDS011;57064;52.046;4.800;2023-03-31T02:07:17;11.63;;;4.75;;
69789;SDS011;57064;52.046;4.800;2023-03-31T02:09:50;15.77;;;3.20;;
69789;SDS011;57064;52.046;4.800;2023-03-31T02:12:21;12.23;;;2.88;;
69789;SDS011;57064;52.046;4.800;2023-03-31T02:14:51;12.07;;;2.95;;
69789;SDS011;57064;52.046;4.800;2023-03-31T02:17:20;13.00;;;3.30;;
69789;SDS011;57064;52.046;4.800;2023-03-31T02:20:00;14.32;;;2.78;;
69789;SDS011;57064;52.046;4.800;2023-03-31T02:22:34;13.93;;;3.10;;
69789;SDS011;57064;52.046;4.800;2023-03-31T02:25:03;17.38;;;3.00;;
69789;SDS011;57064;52.046;4.800;2023-03-31T02:27:32;9.88;;;2.08;;
69789;SDS011;57064;52.046;4.800;2023-03-31T02:30:05;13.55;;;2.60;;
69789;SDS011;57064;52.046;4.800;2023-03-31T02:34:59;9.55;;;1.55;;
69789;SDS011;57064;52.046;4.800;2023-03-31T02:37:26;11.32;;;1.95;;
69789;SDS011;57064;52.046;4.800;2023-03-31T02:39:54;7.05;;;1.80;;
69789;SDS011;57064;52.046;4.800;2023-03-31T02:42:23;10.40;;;3.30;;
69789;SDS011;57064;52.046;4.800;2023-03-31T02:44:49;11.70;;;2.90;;
69789;SDS011;57064;52.046;4.800;2023-03-31T02:47:16;20.58;;;3.75;;
69789;SDS011;57064;52.046;4.800;2023-03-31T02:49:48;12.68;;;3.05;;
69789;SDS011;57064;52.046;4.800;2023-03-31T02:57:40;12.32;;;4.00;;
69789;SDS011;57064;52.046;4.800;2023-03-31T03:17:01;18.17;;;4.40;;
69789;SDS011;57064;52.046;4.800;2023-03-31T03:19:50;10.82;;;3.70;;
69789;SDS011;57064;52.046;4.800;2023-03-31T03:22:18;13.50;;;3.83;;
69789;SDS011;57064;52.046;4.800;2023-03-31T03:24:45;16.48;;;4.28;;
69789;SDS011;57064;52.046;4.800;2023-03-31T03:27:11;11.30;;;3.70;;
69789;SDS011;57064;52.046;4.800;2023-03-31T03:29:37;11.23;;;3.63;;
69789;SDS011;57064;52.046;4.800;2023-03-31T03:32:03;16.42;;;4.20;;
69789;SDS011;57064;52.046;4.800;2023-03-31T03:34:29;10.02;;;3.45;;
69789;SDS011;57064;52.046;4.800;2023-03-31T03:36:56;11.93;;;2.67;;
69789;SDS011;57064;52.046;4.800;2023-03-31T03:39:22;9.48;;;2.90;;
69789;SDS011;57064;52.046;4.800;2023-03-31T03:41:48;14.52;;;3.95;;
69789;SDS011;57064;52.046;4.800;2023-03-31T03:44:14;7.57;;;3.30;;
69789;SDS011;57064;52.046;4.800;2023-03-31T03:46:40;11.90;;;3.30;;
69789;SDS011;57064;52.046;4.800;2023-03-31T03:49:06;13.95;;;4.07;;
69789;SDS011;57064;52.046;4.800;2023-03-31T03:51:32;16.45;;;4.70;;
69789;SDS011;57064;52.046;4.800;2023-03-31T03:53:58;12.02;;;3.95;;
69789;SDS011;57064;52.046;4.800;2023-03-31T03:56:24;16.38;;;4.90;;
69789;SDS011;57064;52.046;4.800;2023-03-31T03:58:51;13.70;;;4.43;;
69789;SDS011;57064;52.046;4.800;2023-03-31T04:01:17;12.82;;;3.97;;
69789;SDS011;57064;52.046;4.800;2023-03-31T04:03:43;16.33;;;2.90;;
69789;SDS011;57064;52.046;4.800;2023-03-31T04:06:09;9.88;;;3.03;;
69789;SDS011;57064;52.046;4.800;2023-03-31T04:08:36;12.45;;;3.40;;
69789;SDS011;57064;52.046;4.800;2023-03-31T04:11:02;10.13;;;3.03;;
69789;SDS011;57064;52.046;4.800;2023-03-31T04:13:33;12.63;;;3.50;;
69789;SDS011;57064;52.046;4.800;2023-03-31T04:16:01;12.80;;;3.28;;
69789;SDS011;57064;52.046;4.800;2023-03-31T04:18:27;17.85;;;3.80;;
69789;SDS011;57064;52.046;4.800;2023-03-31T04:20:53;12.10;;;4.10;;
69789;SDS011;57064;52.046;4.800;2023-03-31T04:23:31;12.25;;;3.90;;
69789;SDS011;57064;52.046;4.800;2023-03-31T04:26:02;16.48;;;3.42;;
69789;SDS011;57064;52.046;4.800;2023-03-31T04:28:33;12.95;;;3.85;;
69789;SDS011;57064;52.046;4.800;2023-03-31T04:31:00;12.68;;;3.10;;
69789;SDS011;57064;52.046;4.800;2023-03-31T04:33:27;11.82;;;3.67;;
69789;SDS011;57064;52.046;4.800;2023-03-31T04:35:53;14.10;;;3.47;;
69789;SDS011;57064;52.046;4.800;2023-03-31T04:38:23;17.13;;;4.20;;
69789;SDS011;57064;52.046;4.800;2023-03-31T04:40:51;9.55;;;3.50;;
69789;SDS011;57064;52.046;4.800;2023-03-31T04:43:18;7.63;;;3.08;;
69789;SDS011;57064;52.046;4.800;2023-03-31T04:45:45;12.55;;;3.45;;
69789;SDS011;57064;52.046;4.800;2023-03-31T04:48:11;9.43;;;2.63;;
69789;SDS011;57064;52.046;4.800;2023-03-31T04:50:37;11.90;;;2.90;;
69789;SDS011;57064;52.046;4.800;2023-03-31T04:53:04;11.63;;;3.00;;
69789;SDS011;57064;52.046;4.800;2023-03-31T04:55:30;10.50;;;3.03;;
69789;SDS011;57064;52.046;4.800;2023-03-31T04:57:57;9.98;;;2.72;;
69789;SDS011;57064;52.046;4.800;2023-03-31T05:00:23;10.65;;;2.65;;
69789;SDS011;57064;52.046;4.800;2023-03-31T05:02:50;11.68;;;3.85;;
69789;SDS011;57064;52.046;4.800;2023-03-31T05:05:16;8.35;;;2.53;;
69789;SDS011;57064;52.046;4.800;2023-03-31T05:07:43;8.45;;;2.60;;
69789;SDS011;57064;52.046;4.800;2023-03-31T05:10:10;12.30;;;2.70;;
69789;SDS011;57064;52.046;4.800;2023-03-31T05:12:36;6.90;;;2.30;;
69789;SDS011;57064;52.046;4.800;2023-03-31T05:15:03;9.30;;;2.30;;
69789;SDS011;57064;52.046;4.800;2023-03-31T05:17:30;10.95;;;2.10;;
69789;SDS011;57064;52.046;4.800;2023-03-31T05:19:57;9.88;;;2.03;;
69789;SDS011;57064;52.046;4.800;2023-03-31T05:22:24;10.63;;;2.20;;
69789;SDS011;57064;52.046;4.800;2023-03-31T05:24:51;8.65;;;2.25;;
69789;SDS011;57064;52.046;4.800;2023-03-31T05:27:17;8.85;;;2.05;;
69789;SDS011;57064;52.046;4.800;2023-03-31T05:29:45;5.93;;;1.55;;
69789;SDS011;57064;52.046;4.800;2023-03-31T05:32:11;11.30;;;2.28;;
69789;SDS011;57064;52.046;4.800;2023-03-31T05:34:37;10.23;;;2.08;;
69789;SDS011;57064;52.046;4.800;2023-03-31T05:37:03;7.30;;;2.13;;
69789;SDS011;57064;52.046;4.800;2023-03-31T05:39:29;6.55;;;1.95;;
69789;SDS011;57064;52.046;4.800;2023-03-31T05:41:57;5.97;;;2.05;;
69789;SDS011;57064;52.046;4.800;2023-03-31T05:44:24;7.05;;;2.10;;
69789;SDS011;57064;52.046;4.800;2023-03-31T05:46:51;7.82;;;2.75;;
69789;SDS011;57064;52.046;4.800;2023-03-31T05:49:18;6.45;;;2.38;;
69789;SDS011;57064;52.046;4.800;2023-03-31T05:51:44;4.78;;;1.70;;
69789;SDS011;57064;52.046;4.800;2023-03-31T05:54:10;9.25;;;2.30;;
69789;SDS011;57064;52.046;4.800;2023-03-31T05:56:37;9.23;;;2.40;;
69789;SDS011;57064;52.046;4.800;2023-03-31T05:59:03;8.45;;;2.22;;
69789;SDS011;57064;52.046;4.800;2023-03-31T06:01:29;7.38;;;1.83;;
69789;SDS011;57064;52.046;4.800;2023-03-31T06:03:55;12.30;;;4.05;;
69789;SDS011;57064;52.046;4.800;2023-03-31T06:06:21;8.43;;;2.72;;
69789;SDS011;57064;52.046;4.800;2023-03-31T06:08:49;9.02;;;1.98;;
69789;SDS011;57064;52.046;4.800;2023-03-31T06:11:17;5.15;;;1.73;;
69789;SDS011;57064;52.046;4.800;2023-03-31T06:13:45;10.07;;;2.35;;
69789;SDS011;57064;52.046;4.800;2023-03-31T06:16:12;6.32;;;2.60;;
69789;SDS011;57064;52.046;4.800;2023-03-31T06:18:39;7.32;;;2.40;;
69789;SDS011;57064;52.046;4.800;2023-03-31T06:21:06;7.03;;;2.00;;
69789;SDS011;57064;52.046;4.800;2023-03-31T06:23:32;5.15;;;2.00;;
69789;SDS011;57064;52.046;4.800;2023-03-31T06:26:03;5.03;;;1.85;;
69789;SDS011;57064;52.046;4.800;2023-03-31T06:28:32;7.30;;;1.70;;
69789;SDS011;57064;52.046;4.800;2023-03-31T06:31:02;4.82;;;1.50;;
69789;SDS011;57064;52.046;4.800;2023-03-31T06:33:30;5.80;;;1.87;;
69789;SDS011;57064;52.046;4.800;2023-03-31T06:35:57;4.15;;;1.50;;
69789;SDS011;57064;52.046;4.800;2023-03-31T06:38:25;5.85;;;1.42;;
69789;SDS011;57064;52.046;4.800;2023-03-31T06:40:52;8.40;;;1.80;;
69789;SDS011;57064;52.046;4.800;2023-03-31T06:43:18;4.85;;;1.20;;
69789;SDS011;57064;52.046;4.800;2023-03-31T06:45:45;6.97;;;1.70;;
69789;SDS011;57064;52.046;4.800;2023-03-31T06:48:11;5.53;;;1.27;;
69789;SDS011;57064;52.046;4.800;2023-03-31T06:50:38;6.78;;;1.60;;
69789;SDS011;57064;52.046;4.800;2023-03-31T06:53:05;10.07;;;2.08;;
69789;SDS011;57064;52.046;4.800;2023-03-31T06:55:35;6.28;;;2.00;;
69789;SDS011;57064;52.046;4.800;2023-03-31T06:58:02;7.47;;;2.05;;
69789;SDS011;57064;52.046;4.800;2023-03-31T07:00:29;6.03;;;1.45;;
69789;SDS011;57064;52.046;4.800;2023-03-31T07:02:56;4.47;;;1.40;;
69789;SDS011;57064;52.046;4.800;2023-03-31T07:05:22;5.38;;;1.48;;
69789;SDS011;57064;52.046;4.800;2023-03-31T07:07:54;5.60;;;1.27;;
69789;SDS011;57064;52.046;4.800;2023-03-31T07:10:22;4.68;;;1.50;;
69789;SDS011;57064;52.046;4.800;2023-03-31T07:12:50;5.30;;;2.22;;
69789;SDS011;57064;52.046;4.800;2023-03-31T07:15:16;6.70;;;1.85;;
69789;SDS011;57064;52.046;4.800;2023-03-31T07:17:43;5.43;;;1.50;;
69789;SDS011;57064;52.046;4.800;2023-03-31T07:20:09;7.70;;;1.95;;
69789;SDS011;57064;52.046;4.800;2023-03-31T07:22:39;6.60;;;1.77;;
69789;SDS011;57064;52.046;4.800;2023-03-31T07:25:06;3.83;;;1.58;;
69789;SDS011;57064;52.046;4.800;2023-03-31T07:27:34;6.95;;;2.38;;
69789;SDS011;57064;52.046;4.800;2023-03-31T07:30:00;5.25;;;2.17;;
69789;SDS011;57064;52.046;4.800;2023-03-31T07:32:28;4.35;;;2.28;;
69789;SDS011;57064;52.046;4.800;2023-03-31T07:34:54;6.68;;;2.22;;
69789;SDS011;57064;52.046;4.800;2023-03-31T07:37:20;7.53;;;2.75;;
69789;SDS011;57064;52.046;4.800;2023-03-31T07:39:46;8.27;;;2.95;;
69789;SDS011;57064;52.046;4.800;2023-03-31T07:42:12;6.05;;;2.85;;
69789;SDS011;57064;52.046;4.800;2023-03-31T07:44:38;8.63;;;3.65;;
69789;SDS011;57064;52.046;4.800;2023-03-31T07:47:04;12.48;;;3.42;;
69789;SDS011;57064;52.046;4.800;2023-03-31T07:49:31;9.63;;;3.80;;
69789;SDS011;57064;52.046;4.800;2023-03-31T07:51:58;11.48;;;3.85;;
69789;SDS011;57064;52.046;4.800;2023-03-31T07:54:24;11.52;;;4.07;;
69789;SDS011;57064;52.046;4.800;2023-03-31T07:56:50;11.75;;;5.55;;
69789;SDS011;57064;52.046;4.800;2023-03-31T07:59:17;8.68;;;3.55;;
69789;SDS011;57064;52.046;4.800;2023-03-31T08:01:43;9.95;;;2.95;;
69789;SDS011;57064;52.046;4.800;2023-03-31T08:04:10;11.35;;;3.72;;
69789;SDS011;57064;52.046;4.800;2023-03-31T08:06:37;10.10;;;2.88;;
69789;SDS011;57064;52.046;4.800;2023-03-31T08:09:03;11.63;;;2.75;;
69789;SDS011;57064;52.046;4.800;2023-03-31T08:11:32;12.20;;;3.53;;
69789;SDS011;57064;52.046;4.800;2023-03-31T08:13:58;13.48;;;3.83;;
69789;SDS011;57064;52.046;4.800;2023-03-31T08:16:24;9.30;;;2.63;;
69789;SDS011;57064;52.046;4.800;2023-03-31T08:18:50;8.23;;;2.53;;
69789;SDS011;57064;52.046;4.800;2023-03-31T08:21:16;10.40;;;3.00;;
69789;SDS011;57064;52.046;4.800;2023-03-31T08:23:42;11.13;;;2.80;;
69789;SDS011;57064;52.046;4.800;2023-03-31T08:26:10;10.05;;;2.53;;
69789;SDS011;57064;52.046;4.800;2023-03-31T08:28:46;11.23;;;2.83;;
69789;SDS011;57064;52.046;4.800;2023-03-31T08:31:13;10.63;;;2.30;;
69789;SDS011;57064;52.046;4.800;2023-03-31T08:33:40;10.23;;;2.10;;
69789;SDS011;57064;52.046;4.800;2023-03-31T08:36:07;7.63;;;2.20;;
69789;SDS011;57064;52.046;4.800;2023-03-31T08:38:43;7.97;;;2.45;;
69789;SDS011;57064;52.046;4.800;2023-03-31T08:41:23;8.98;;;3.03;;
69789;SDS011;57064;52.046;4.800;2023-03-31T08:43:59;12.60;;;3.05;;
69789;SDS011;57064;52.046;4.800;2023-03-31T08:46:28;8.63;;;2.60;;
69789;SDS011;57064;52.046;4.800;2023-03-31T08:48:57;8.68;;;2.80;;
69789;SDS011;57064;52.046;4.800;2023-03-31T08:54:00;11.77;;;3.35;;
69789;SDS011;57064;52.046;4.800;2023-03-31T08:56:31;11.13;;;2.40;;
69789;SDS011;57064;52.046;4.800;2023-03-31T08:59:03;13.77;;;3.10;;
69789;SDS011;57064;52.046;4.800;2023-03-31T09:01:44;14.30;;;3.22;;
69789;SDS011;57064;52.046;4.800;2023-03-31T09:12:11;12.98;;;2.53;;
69789;SDS011;57064;52.046;4.800;2023-03-31T09:17:28;12.43;;;2.63;;
69789;SDS011;57064;52.046;4.800;2023-03-31T09:19:58;15.43;;;3.03;;
69789;SDS011;57064;52.046;4.800;2023-03-31T09:22:32;15.60;;;3.95;;
69789;SDS011;57064;52.046;4.800;2023-03-31T09:27:36;18.85;;;3.55;;
69789;SDS011;57064;52.046;4.800;2023-03-31T09:30:10;7.40;;;2.20;;
69789;SDS011;57064;52.046;4.800;2023-03-31T09:32:46;8.85;;;2.42;;
69789;SDS011;57064;52.046;4.800;2023-03-31T09:37:43;10.13;;;2.30;;
69789;SDS011;57064;52.046;4.800;2023-03-31T09:40:12;11.18;;;2.70;;
69789;SDS011;57064;52.046;4.800;2023-03-31T09:42:41;11.40;;;2.47;;
69789;SDS011;57064;52.046;4.800;2023-03-31T09:45:13;15.68;;;2.50;;
69789;SDS011;57064;52.046;4.800;2023-03-31T09:47:43;16.30;;;2.72;;
69789;SDS011;57064;52.046;4.800;2023-03-31T09:50:13;15.13;;;2.95;;
69789;SDS011;57064;52.046;4.800;2023-03-31T09:52:42;14.40;;;2.75;;
69789;SDS011;57064;52.046;4.800;2023-03-31T09:55:19;8.52;;;2.00;;
69789;SDS011;57064;52.046;4.800;2023-03-31T09:57:46;10.43;;;2.22;;
69789;SDS011;57064;52.046;4.800;2023-03-31T10:10:43;6.45;;;2.03;;
69789;SDS011;57064;52.046;4.800;2023-03-31T10:13:19;10.65;;;2.28;;
69789;SDS011;57064;52.046;4.800;2023-03-31T10:16:05;10.98;;;2.40;;
69789;SDS011;57064;52.046;4.800;2023-03-31T10:18:40;14.85;;;2.60;;
69789;SDS011;57064;52.046;4.800;2023-03-31T10:21:20;13.90;;;2.92;;
69789;SDS011;57064;52.046;4.800;2023-03-31T10:26:20;10.68;;;2.33;;
69789;SDS011;57064;52.046;4.800;2023-03-31T10:28:50;19.05;;;2.95;;
69789;SDS011;57064;52.046;4.800;2023-03-31T10:31:17;11.02;;;2.30;;
69789;SDS011;57064;52.046;4.800;2023-03-31T10:33:45;14.02;;;3.38;;
69789;SDS011;57064;52.046;4.800;2023-03-31T10:36:16;10.13;;;2.13;;
69789;SDS011;57064;52.046;4.800;2023-03-31T10:38:51;10.77;;;1.90;;
69789;SDS011;57064;52.046;4.800;2023-03-31T10:41:21;9.93;;;2.10;;
69789;SDS011;57064;52.046;4.800;2023-03-31T10:43:51;11.02;;;2.30;;
69789;SDS011;57064;52.046;4.800;2023-03-31T10:46:19;7.70;;;1.80;;
69789;SDS011;57064;52.046;4.800;2023-03-31T10:48:45;8.90;;;1.90;;
69789;SDS011;57064;52.046;4.800;2023-03-31T10:53:45;9.90;;;2.00;;
69789;SDS011;57064;52.046;4.800;2023-03-31T10:59:12;8.95;;;2.13;;
69789;SDS011;57064;52.046;4.800;2023-03-31T11:07:01;10.57;;;2.63;;
69789;SDS011;57064;52.046;4.800;2023-03-31T11:12:32;12.07;;;2.03;;
69789;SDS011;57064;52.046;4.800;2023-03-31T11:15:11;9.93;;;2.92;;
69789;SDS011;57064;52.046;4.800;2023-03-31T11:23:17;5.68;;;1.65;;
69789;SDS011;57064;52.046;4.800;2023-03-31T11:25:57;11.55;;;1.83;;
69789;SDS011;57064;52.046;4.800;2023-03-31T11:31:32;9.00;;;2.35;;
69789;SDS011;57064;52.046;4.800;2023-03-31T11:36:48;5.15;;;1.90;;
69789;SDS011;57064;52.046;4.800;2023-03-31T11:39:49;6.13;;;1.70;;
69789;SDS011;57064;52.046;4.800;2023-03-31T11:42:47;7.70;;;1.60;;
69789;SDS011;57064;52.046;4.800;2023-03-31T11:48:04;7.63;;;1.65;;
69789;SDS011;57064;52.046;4.800;2023-03-31T11:50:37;6.80;;;1.48;;
69789;SDS011;57064;52.046;4.800;2023-03-31T11:53:06;11.32;;;1.30;;
69789;SDS011;57064;52.046;4.800;2023-03-31T11:55:43;9.05;;;1.77;;
69789;SDS011;57064;52.046;4.800;2023-03-31T11:58:14;8.60;;;1.40;;
69789;SDS011;57064;52.046;4.800;2023-03-31T12:01:16;6.32;;;1.30;;
69789;SDS011;57064;52.046;4.800;2023-03-31T12:03:55;8.32;;;0.85;;
69789;SDS011;57064;52.046;4.800;2023-03-31T12:06:27;8.15;;;2.47;;
69789;SDS011;57064;52.046;4.800;2023-03-31T12:09:04;8.30;;;1.25;;
69789;SDS011;57064;52.046;4.800;2023-03-31T12:14:10;4.93;;;1.00;;
69789;SDS011;57064;52.046;4.800;2023-03-31T12:16:51;8.05;;;1.20;;
69789;SDS011;57064;52.046;4.800;2023-03-31T12:22:09;6.45;;;1.95;;
69789;SDS011;57064;52.046;4.800;2023-03-31T12:24:53;5.70;;;1.30;;
69789;SDS011;57064;52.046;4.800;2023-03-31T12:32:44;8.50;;;1.60;;
69789;SDS011;57064;52.046;4.800;2023-03-31T12:49:15;15.00;;;2.03;;
69789;SDS011;57064;52.046;4.800;2023-03-31T12:52:06;10.23;;;1.88;;
69789;SDS011;57064;52.046;4.800;2023-03-31T12:59:39;8.13;;;1.75;;
69789;SDS011;57064;52.046;4.800;2023-03-31T13:04:39;7.28;;;2.28;;
69789;SDS011;57064;52.046;4.800;2023-03-31T13:07:13;9.93;;;1.75;;
69789;SDS011;57064;52.046;4.800;2023-03-31T13:12:38;7.70;;;1.20;;
69789;SDS011;57064;52.046;4.800;2023-03-31T13:15:05;6.57;;;1.40;;
69789;SDS011;57064;52.046;4.800;2023-03-31T13:17:38;7.88;;;1.33;;
69789;SDS011;57064;52.046;4.800;2023-03-31T13:20:16;12.65;;;2.10;;
69789;SDS011;57064;52.046;4.800;2023-03-31T13:25:49;5.07;;;1.30;;
69789;SDS011;57064;52.046;4.800;2023-03-31T13:44:01;6.43;;;1.38;;
69789;SDS011;57064;52.046;4.800;2023-03-31T13:51:49;7.68;;;1.30;;
69789;SDS011;57064;52.046;4.800;2023-03-31T13:57:26;4.75;;;1.60;;
69789;SDS011;57064;52.046;4.800;2023-03-31T14:02:59;5.88;;;1.58;;
69789;SDS011;57064;52.046;4.800;2023-03-31T14:05:54;7.32;;;1.85;;
69789;SDS011;57064;52.046;4.800;2023-03-31T14:08:49;6.55;;;1.42;;
69789;SDS011;57064;52.046;4.800;2023-03-31T14:16:27;3.78;;;1.00;;
69789;SDS011;57064;52.046;4.800;2023-03-31T14:19:09;3.13;;;0.85;;
69789;SDS011;57064;52.046;4.800;2023-03-31T14:24:49;4.00;;;1.15;;
69789;SDS011;57064;52.046;4.800;2023-03-31T14:30:23;3.88;;;0.70;;
69789;SDS011;57064;52.046;4.800;2023-03-31T14:32:57;3.55;;;1.00;;
69789;SDS011;57064;52.046;4.800;2023-03-31T14:35:34;4.35;;;1.20;;
69789;SDS011;57064;52.046;4.800;2023-03-31T14:38:26;3.97;;;1.20;;
69789;SDS011;57064;52.046;4.800;2023-03-31T14:40:53;4.43;;;0.88;;
69789;SDS011;57064;52.046;4.800;2023-03-31T14:43:24;4.72;;;1.17;;
69789;SDS011;57064;52.046;4.800;2023-03-31T14:46:08;4.85;;;1.05;;
69789;SDS011;57064;52.046;4.800;2023-03-31T14:48:39;2.83;;;1.00;;
69789;SDS011;57064;52.046;4.800;2023-03-31T14:51:10;5.93;;;1.40;;
69789;SDS011;57064;52.046;4.800;2023-03-31T14:53:38;5.50;;;1.95;;
69789;SDS011;57064;52.046;4.800;2023-03-31T14:56:06;6.18;;;1.70;;
69789;SDS011;57064;52.046;4.800;2023-03-31T14:58:36;3.10;;;1.48;;
69789;SDS011;57064;52.046;4.800;2023-03-31T15:01:05;6.00;;;1.40;;
69789;SDS011;57064;52.046;4.800;2023-03-31T15:03:33;5.97;;;1.70;;
69789;SDS011;57064;52.046;4.800;2023-03-31T15:06:06;7.28;;;1.90;;
69789;SDS011;57064;52.046;4.800;2023-03-31T15:08:33;5.25;;;1.65;;
69789;SDS011;57064;52.046;4.800;2023-03-31T15:11:02;7.53;;;2.50;;
69789;SDS011;57064;52.046;4.800;2023-03-31T15:13:32;6.45;;;1.60;;
69789;SDS011;57064;52.046;4.800;2023-03-31T15:16:18;6.78;;;1.65;;
69789;SDS011;57064;52.046;4.800;2023-03-31T15:18:44;4.65;;;1.92;;
69789;SDS011;57064;52.046;4.800;2023-03-31T15:21:20;5.43;;;1.90;;
69789;SDS011;57064;52.046;4.800;2023-03-31T15:23:50;6.85;;;2.03;;
69789;SDS011;57064;52.046;4.800;2023-03-31T15:26:17;4.97;;;2.28;;
69789;SDS011;57064;52.046;4.800;2023-03-31T15:29:22;6.80;;;2.15;;
69789;SDS011;57064;52.046;4.800;2023-03-31T15:32:07;5.95;;;2.78;;
69789;SDS011;57064;52.046;4.800;2023-03-31T15:34:42;7.60;;;2.72;;
69789;SDS011;57064;52.046;4.800;2023-03-31T15:37:10;4.03;;;2.10;;
69789;SDS011;57064;52.046;4.800;2023-03-31T15:39:37;7.78;;;2.22;;
69789;SDS011;57064;52.046;4.800;2023-03-31T15:42:04;8.25;;;3.58;;
69789;SDS011;57064;52.046;4.800;2023-03-31T15:47:05;11.45;;;4.10;;
69789;SDS011;57064;52.046;4.800;2023-03-31T15:49:32;5.65;;;3.47;;
69789;SDS011;57064;52.046;4.800;2023-03-31T15:51:59;4.35;;;2.78;;
69789;SDS011;57064;52.046;4.800;2023-03-31T15:54:33;5.25;;;2.70;;
69789;SDS011;57064;52.046;4.800;2023-03-31T15:57:05;6.50;;;3.17;;
69789;SDS011;57064;52.046;4.800;2023-03-31T15:59:42;6.85;;;3.10;;
69789;SDS011;57064;52.046;4.800;2023-03-31T16:02:14;6.00;;;2.65;;
69789;SDS011;57064;52.046;4.800;2023-03-31T16:04:49;6.25;;;2.28;;
69789;SDS011;57064;52.046;4.800;2023-03-31T16:10:04;7.43;;;2.47;;
69789;SDS011;57064;52.046;4.800;2023-03-31T16:15:31;13.63;;;7.22;;
69789;SDS011;57064;52.046;4.800;2023-03-31T16:18:13;3.05;;;2.22;;
69789;SDS011;57064;52.046;4.800;2023-03-31T16:20:43;5.75;;;2.97;;
69789;SDS011;57064;52.046;4.800;2023-03-31T16:23:24;3.42;;;2.85;;
69789;SDS011;57064;52.046;4.800;2023-03-31T16:25:55;5.57;;;2.63;;
69789;SDS011;57064;52.046;4.800;2023-03-31T16:28:22;4.60;;;2.47;;
69789;SDS011;57064;52.046;4.800;2023-03-31T16:30:56;4.43;;;2.42;;
69789;SDS011;57064;52.046;4.800;2023-03-31T16:33:26;6.20;;;2.35;;
69789;SDS011;57064;52.046;4.800;2023-03-31T16:35:57;6.60;;;2.33;;
69789;SDS011;57064;52.046;4.800;2023-03-31T16:38:26;9.23;;;2.47;;
69789;SDS011;57064;52.046;4.800;2023-03-31T16:40:56;3.97;;;2.35;;
69789;SDS011;57064;52.046;4.800;2023-03-31T16:43:25;4.95;;;2.60;;
69789;SDS011;57064;52.046;4.800;2023-03-31T16:45:56;3.58;;;2.72;;
69789;SDS011;57064;52.046;4.800;2023-03-31T16:48:24;3.83;;;3.03;;
69789;SDS011;57064;52.046;4.800;2023-03-31T16:50:52;5.00;;;3.13;;
69789;SDS011;57064;52.046;4.800;2023-03-31T16:53:21;6.50;;;3.40;;
69789;SDS011;57064;52.046;4.800;2023-03-31T16:55:48;6.65;;;3.53;;
69789;SDS011;57064;52.046;4.800;2023-03-31T16:58:15;6.97;;;3.10;;
69789;SDS011;57064;52.046;4.800;2023-03-31T17:00:42;11.15;;;4.85;;
69789;SDS011;57064;52.046;4.800;2023-03-31T17:03:09;7.60;;;2.67;;
69789;SDS011;57064;52.046;4.800;2023-03-31T17:05:40;8.73;;;3.33;;
69789;SDS011;57064;52.046;4.800;2023-03-31T17:08:08;6.38;;;3.95;;
69789;SDS011;57064;52.046;4.800;2023-03-31T17:10:35;9.85;;;4.70;;
69789;SDS011;57064;52.046;4.800;2023-03-31T17:13:02;8.45;;;4.05;;
69789;SDS011;57064;52.046;4.800;2023-03-31T17:15:28;9.85;;;3.10;;
69789;SDS011;57064;52.046;4.800;2023-03-31T17:17:54;4.15;;;2.47;;
69789;SDS011;57064;52.046;4.800;2023-03-31T17:20:22;4.40;;;2.25;;
69789;SDS011;57064;52.046;4.800;2023-03-31T17:22:49;3.45;;;2.28;;
69789;SDS011;57064;52.046;4.800;2023-03-31T17:25:15;4.32;;;2.47;;
69789;SDS011;57064;52.046;4.800;2023-03-31T17:27:43;5.03;;;2.45;;
69789;SDS011;57064;52.046;4.800;2023-03-31T17:30:09;7.82;;;2.80;;
69789;SDS011;57064;52.046;4.800;2023-03-31T17:32:36;10.93;;;2.95;;
69789;SDS011;57064;52.046;4.800;2023-03-31T17:35:03;9.68;;;3.00;;
69789;SDS011;57064;52.046;4.800;2023-03-31T17:37:30;7.97;;;4.35;;
69789;SDS011;57064;52.046;4.800;2023-03-31T17:39:57;8.52;;;3.00;;
69789;SDS011;57064;52.046;4.800;2023-03-31T17:42:23;7.97;;;2.72;;
69789;SDS011;57064;52.046;4.800;2023-03-31T17:44:50;10.88;;;2.63;;
69789;SDS011;57064;52.046;4.800;2023-03-31T17:47:18;9.30;;;2.20;;
69789;SDS011;57064;52.046;4.800;2023-03-31T17:49:44;8.88;;;3.53;;
69789;SDS011;57064;52.046;4.800;2023-03-31T17:52:11;12.50;;;4.43;;
69789;SDS011;57064;52.046;4.800;2023-03-31T17:54:37;10.93;;;3.83;;
69789;SDS011;57064;52.046;4.800;2023-03-31T17:57:03;11.68;;;5.05;;
69789;SDS011;57064;52.046;4.800;2023-03-31T17:59:30;10.25;;;3.58;;
69789;SDS011;57064;52.046;4.800;2023-03-31T18:01:56;9.40;;;3.80;;
69789;SDS011;57064;52.046;4.800;2023-03-31T18:04:23;9.68;;;3.58;;
69789;SDS011;57064;52.046;4.800;2023-03-31T18:06:49;7.72;;;2.75;;
69789;SDS011;57064;52.046;4.800;2023-03-31T18:09:15;8.05;;;3.28;;
69789;SDS011;57064;52.046;4.800;2023-03-31T18:11:42;12.20;;;4.28;;
69789;SDS011;57064;52.046;4.800;2023-03-31T18:14:08;12.88;;;4.60;;
69789;SDS011;57064;52.046;4.800;2023-03-31T18:16:34;9.98;;;3.67;;
69789;SDS011;57064;52.046;4.800;2023-03-31T18:19:01;15.45;;;4.70;;